createdAt,value
2019-03-13T00:03:07.046Z,46.72
2019-03-13T00:08:08.758Z,46.67
2019-03-13T00:13:10.517Z,46.64
2019-03-13T00:18:12.235Z,46.63
2019-03-13T00:23:13.830Z,46.63
2019-03-13T00:28:15.556Z,46.59
2019-03-13T00:33:17.226Z,46.52
2019-03-13T00:38:18.934Z,46.51
2019-03-13T00:43:20.559Z,46.49
2019-03-13T00:48:22.338Z,46.47
2019-03-13T00:53:24.037Z,46.49
2019-03-13T00:58:25.733Z,46.46
2019-03-13T01:03:38.133Z,46.42
2019-03-13T01:08:39.735Z,46.40
2019-03-13T01:13:41.449Z,46.41
2019-03-13T01:18:43.230Z,46.42
2019-03-13T01:23:44.822Z,46.47
2019-03-13T01:28:46.557Z,46.70
2019-03-13T01:33:48.572Z,47.10
2019-03-13T01:38:50.215Z,47.46
2019-03-13T01:43:51.844Z,47.89
2019-03-13T01:48:53.551Z,48.43
2019-03-13T01:53:55.190Z,48.94
2019-03-13T01:58:56.848Z,49.32
2019-03-13T02:03:58.545Z,49.55
2019-03-13T02:09:00.288Z,49.76
2019-03-13T02:14:01.892Z,49.89
2019-03-13T02:19:03.605Z,50.04
2019-03-13T02:24:05.416Z,50.20
2019-03-13T02:29:07.129Z,50.37
2019-03-13T02:34:08.726Z,50.56
2019-03-13T02:39:10.444Z,50.76
2019-03-13T02:44:12.189Z,50.91
2019-03-13T02:49:13.820Z,51.11
2019-03-13T02:54:15.705Z,51.29
2019-03-13T02:59:17.456Z,51.47
2019-03-13T03:04:19.096Z,51.62
2019-03-13T03:09:20.737Z,51.88
2019-03-13T03:14:22.531Z,52.20
2019-03-13T03:19:24.171Z,52.63
2019-03-13T03:24:25.735Z,53.11
2019-03-13T03:29:27.446Z,53.76
2019-03-13T03:34:29.046Z,54.23
2019-03-13T03:39:30.601Z,54.59
2019-03-13T03:44:32.334Z,54.90
2019-03-13T03:49:33.896Z,55.19
2019-03-13T03:54:35.455Z,55.60
2019-03-13T03:59:37.111Z,55.92
2019-03-13T04:04:38.699Z,56.20
2019-03-13T04:09:40.249Z,56.20
2019-03-13T04:14:41.926Z,56.19
2019-03-13T04:19:43.635Z,56.18
2019-03-13T04:24:45.310Z,56.24
2019-03-13T04:29:46.885Z,56.20
2019-03-13T04:34:48.496Z,56.30
2019-03-13T04:39:50.085Z,56.25
2019-03-13T04:44:51.704Z,56.35
2019-03-13T04:49:53.321Z,56.26
2019-03-13T04:54:54.955Z,56.24
2019-03-13T04:59:56.621Z,56.18
2019-03-13T05:04:58.222Z,56.23
2019-03-13T05:09:59.852Z,56.45
2019-03-13T05:15:01.467Z,56.66
2019-03-13T05:20:03.672Z,56.58
2019-03-13T05:25:05.510Z,56.67
2019-03-13T05:30:07.181Z,56.40
2019-03-13T05:35:08.937Z,56.31
2019-03-13T05:40:10.617Z,56.28
2019-03-13T05:45:12.376Z,56.25
2019-03-13T05:50:14.050Z,56.18
2019-03-13T05:55:15.740Z,56.28
2019-03-13T06:00:19.433Z,56.19
2019-03-13T06:05:21.005Z,56.26
2019-03-13T06:10:22.576Z,56.25
2019-03-13T06:15:24.158Z,56.19
2019-03-13T06:20:25.846Z,56.22
2019-03-13T06:25:27.445Z,56.33
2019-03-13T06:30:29.005Z,56.31
2019-03-13T06:35:30.558Z,56.34
2019-03-13T06:40:32.152Z,56.32
2019-03-13T06:45:33.696Z,56.29
2019-03-13T06:50:35.254Z,56.33
2019-03-13T06:55:36.800Z,56.29
2019-03-13T07:01:03.863Z,56.14
2019-03-13T07:06:30.982Z,56.11
2019-03-13T07:11:41.977Z,56.06
2019-03-13T07:17:01.843Z,56.00
2019-03-13T07:22:22.195Z,55.90
2019-03-13T07:27:49.687Z,55.91
2019-03-13T07:32:58.392Z,55.82
2019-03-13T07:38:15.541Z,55.72
2019-03-13T07:43:35.976Z,55.65
2019-03-13T07:49:00.173Z,55.50
2019-03-13T07:54:12.544Z,55.34
2019-03-13T07:59:48.570Z,55.32
2019-03-13T08:05:21.695Z,55.26
2019-03-13T08:10:29.538Z,55.17
2019-03-13T08:15:38.587Z,54.89
2019-03-13T08:21:00.064Z,54.56
2019-03-13T08:26:06.919Z,54.57
2019-03-13T08:31:17.318Z,54.66
2019-03-13T08:36:40.796Z,54.63
2019-03-13T08:42:14.461Z,54.66
2019-03-13T08:47:25.127Z,54.62
2019-03-13T08:52:48.599Z,54.48
2019-03-13T08:58:15.661Z,54.21
2019-03-13T09:03:30.353Z,54.08
2019-03-13T09:08:50.534Z,54.14
2019-03-13T09:14:10.694Z,54.07
2019-03-13T09:19:21.289Z,54.05
2019-03-13T09:24:45.352Z,54.13
2019-03-13T09:30:12.678Z,54.14
2019-03-13T09:35:24.715Z,54.12
2019-03-13T09:40:35.078Z,54.20
2019-03-13T09:45:53.032Z,54.29
2019-03-13T09:51:32.434Z,54.33
2019-03-13T09:56:59.249Z,54.41
2019-03-13T10:02:19.060Z,54.43
2019-03-13T10:07:52.164Z,54.42
2019-03-13T10:13:12.175Z,54.12
2019-03-13T10:18:19.494Z,53.62
2019-03-13T10:23:28.234Z,53.07
2019-03-13T10:28:35.935Z,52.77
2019-03-13T10:33:59.750Z,52.93
2019-03-13T10:39:09.383Z,53.02
2019-03-13T10:44:36.381Z,52.82
2019-03-13T10:49:43.362Z,52.84
2019-03-13T10:54:52.113Z,53.06
2019-03-13T11:00:22.204Z,52.64
2019-03-13T11:05:44.097Z,51.89
2019-03-13T11:10:59.472Z,51.70
2019-03-13T11:16:19.507Z,51.42
2019-03-13T11:21:46.540Z,50.92
2019-03-13T11:27:13.837Z,50.67
2019-03-13T11:32:44.409Z,50.26
2019-03-13T11:37:58.415Z,49.93
2019-03-13T11:43:18.644Z,46.77
2019-03-13T11:48:31.565Z,43.35
2019-03-13T11:53:51.429Z,41.85
2019-03-13T11:59:22.007Z,41.33
2019-03-13T12:04:46.228Z,41.17
2019-03-13T12:10:13.311Z,43.53
2019-03-13T12:15:35.845Z,47.57
2019-03-13T12:20:42.566Z,49.25
2019-03-13T12:25:56.831Z,49.70
2019-03-13T12:31:14.062Z,49.62
2019-03-13T12:36:42.752Z,49.50
2019-03-13T12:41:59.164Z,49.50
2019-03-13T12:47:35.545Z,49.44
2019-03-13T12:52:59.816Z,49.19
2019-03-13T12:58:16.494Z,49.07
2019-03-13T13:03:36.365Z,48.99
2019-03-13T13:08:49.418Z,48.64
2019-03-13T13:14:02.264Z,48.38
2019-03-13T13:19:03.956Z,48.25
2019-03-13T13:24:05.549Z,47.97
2019-03-13T13:29:07.220Z,47.83
2019-03-13T13:34:08.788Z,47.84
2019-03-13T13:39:10.632Z,47.74
2019-03-13T13:44:12.247Z,47.97
2019-03-13T13:49:13.790Z,48.04
2019-03-13T13:54:17.276Z,48.18
2019-03-13T13:59:18.904Z,48.20
2019-03-13T14:04:20.473Z,48.19
2019-03-13T14:09:22.056Z,48.13
2019-03-13T14:14:23.698Z,48.21
2019-03-13T14:19:25.289Z,48.13
2019-03-13T14:24:27.028Z,48.02
2019-03-13T14:29:28.759Z,47.96
2019-03-13T14:34:30.349Z,47.88
2019-03-13T14:39:31.936Z,47.85
2019-03-13T14:44:33.514Z,47.80
2019-03-13T14:49:35.074Z,47.74
2019-03-13T14:54:36.633Z,47.75
2019-03-13T14:59:38.376Z,47.80
2019-03-13T15:04:39.989Z,47.84
2019-03-13T15:09:41.662Z,47.84
2019-03-13T15:14:43.252Z,47.82
2019-03-13T15:19:44.822Z,47.79
2019-03-13T15:24:46.388Z,47.64
2019-03-13T15:29:48.092Z,47.73
2019-03-13T15:34:49.679Z,47.76
2019-03-13T15:39:51.407Z,47.77
2019-03-13T15:44:53.146Z,47.79
2019-03-13T15:49:54.811Z,47.87
2019-03-13T15:54:56.389Z,47.83
2019-03-13T15:59:57.993Z,47.85
2019-03-13T16:04:59.631Z,47.84
2019-03-13T16:10:03.003Z,47.87
2019-03-13T16:15:06.241Z,47.90
2019-03-13T16:20:08.838Z,47.93
2019-03-13T16:25:10.534Z,47.92
2019-03-13T16:30:14.530Z,47.71
2019-03-13T16:35:16.693Z,47.82
2019-03-13T16:40:18.310Z,47.78
2019-03-13T16:45:20.214Z,47.87
2019-03-13T16:50:21.816Z,48.00
2019-03-13T16:55:23.442Z,48.14
2019-03-13T17:00:25.340Z,48.22
2019-03-13T17:05:27.141Z,48.26
2019-03-13T17:10:29.097Z,48.28
2019-03-13T17:15:30.654Z,48.31
2019-03-13T17:20:32.393Z,48.39
2019-03-13T17:25:34.070Z,48.43
2019-03-13T17:30:35.675Z,48.51
2019-03-13T17:35:37.430Z,48.66
2019-03-13T17:40:39.237Z,48.96
2019-03-13T17:45:40.947Z,49.17
2019-03-13T17:50:42.598Z,49.29
2019-03-13T17:55:44.160Z,49.37
2019-03-13T18:00:48.077Z,49.42
2019-03-13T18:05:49.913Z,49.47
2019-03-13T18:10:51.627Z,49.51
2019-03-13T18:15:53.365Z,49.56
2019-03-13T18:20:54.955Z,49.67
2019-03-13T18:25:56.658Z,49.77
2019-03-13T18:30:58.242Z,49.84
2019-03-13T18:35:59.842Z,49.89
2019-03-13T18:41:01.446Z,49.94
2019-03-13T18:46:03.126Z,49.99
2019-03-13T18:51:05.287Z,50.04
2019-03-13T18:56:07.032Z,50.14
2019-03-13T19:01:08.663Z,50.22
2019-03-13T19:06:10.277Z,50.39
2019-03-13T19:11:11.842Z,50.50
2019-03-13T19:16:13.563Z,50.67
2019-03-13T19:21:15.131Z,50.83
2019-03-13T19:26:16.680Z,51.04
2019-03-13T19:31:18.276Z,51.20
2019-03-13T19:36:20.214Z,51.39
2019-03-13T19:41:21.911Z,51.54
2019-03-13T19:46:24.430Z,51.66
2019-03-13T19:51:26.002Z,51.81
2019-03-13T19:56:27.581Z,51.95
2019-03-13T20:01:29.163Z,52.12
2019-03-13T20:06:41.679Z,52.33
2019-03-13T20:11:34.247Z,52.56
2019-03-13T20:16:35.809Z,52.53
2019-03-13T20:21:37.366Z,52.71
2019-03-13T20:26:39.081Z,52.79
2019-03-13T20:31:40.656Z,52.96
2019-03-13T20:36:42.317Z,53.15
2019-03-13T20:41:43.996Z,53.22
2019-03-13T20:46:45.609Z,53.39
2019-03-13T20:51:47.187Z,53.55
2019-03-13T20:56:48.742Z,53.71
2019-03-13T21:01:50.479Z,53.84
2019-03-13T21:06:52.191Z,54.05
2019-03-13T21:11:53.790Z,54.26
2019-03-13T21:16:55.361Z,54.42
2019-03-13T21:21:56.962Z,54.47
2019-03-13T21:26:58.709Z,54.62
2019-03-13T21:32:00.404Z,54.71
2019-03-13T21:37:01.988Z,54.88
2019-03-13T21:42:03.738Z,55.03
2019-03-13T21:47:05.416Z,55.17
2019-03-13T21:52:07.096Z,55.28
2019-03-13T21:57:08.694Z,55.47
2019-03-13T22:02:10.277Z,55.61
2019-03-13T22:07:11.896Z,55.79
2019-03-13T22:12:13.466Z,55.91
2019-03-13T22:17:15.031Z,56.01
2019-03-13T22:22:16.617Z,56.17
2019-03-13T22:27:18.259Z,56.30
2019-03-13T22:32:19.855Z,56.39
2019-03-13T22:37:21.559Z,56.54
2019-03-13T22:42:23.217Z,56.66
2019-03-13T22:47:24.778Z,56.78
2019-03-13T22:52:26.340Z,56.85
2019-03-13T22:57:28.057Z,56.92
2019-03-13T23:02:29.787Z,57.01
2019-03-13T23:07:32.445Z,57.05
2019-03-13T23:12:34.047Z,57.10
2019-03-13T23:17:35.664Z,57.18
2019-03-13T23:22:37.399Z,57.28
2019-03-13T23:27:39.413Z,57.36
2019-03-13T23:32:41.173Z,57.46
2019-03-13T23:37:42.840Z,57.55
2019-03-13T23:42:44.552Z,57.58
2019-03-13T23:47:46.321Z,57.67
2019-03-13T23:52:47.887Z,57.78
2019-03-13T23:57:49.590Z,57.86
